In Rescue
 
Open Full Screen Window  High Contrast Mode
Wind Gusting 00 knots
05
November 29, 2022 8:40 AM EST
Present Weather: Mist
Weather Information
Wind Direction
  150 °
Wind Speed
  05 kt (6 mph)
Wind Gust
  00 kt (0 mph)
Altimeter
30.04 in
Visibility
4 SM
Temperature
06° C
43° F
Dewpoint
04° C
39° F
Humidity
87%
1hr Rain Fall
00.00 in.
24hr Rain Fall
00.00 in.
Sky Condition
Overcast @ 3,400 ft
MVFR

METAR KTTF 291340Z AUTO 15005KT 4SM BR OVC034 06/04 A3004 RMK AO2 T00580043

FAA Disclaimer: The data displayed is for advisory purposes only and is not to be used for flight planning or operations.